sensor_id;sensor_type;location;lat;lon;timestamp;P1;durP1;ratioP1;P2;durP2;ratioP2
24677;SDS011;12800;53.094;8.778;2023-02-01T00:01:34;12.27;;;3.07;;
24677;SDS011;12800;53.094;8.778;2023-02-01T00:03:59;12.87;;;3.83;;
24677;SDS011;12800;53.094;8.778;2023-02-01T00:06:25;18.50;;;3.80;;
24677;SDS011;12800;53.094;8.778;2023-02-01T00:08:54;26.07;;;4.03;;
24677;SDS011;12800;53.094;8.778;2023-02-01T00:11:20;22.97;;;4.77;;
24677;SDS011;12800;53.094;8.778;2023-02-01T00:13:46;29.67;;;4.03;;
24677;SDS011;12800;53.094;8.778;2023-02-01T00:18:41;16.77;;;3.40;;
24677;SDS011;12800;53.094;8.778;2023-02-01T00:21:07;17.83;;;3.07;;
24677;SDS011;12800;53.094;8.778;2023-02-01T00:23:33;25.93;;;4.47;;
24677;SDS011;12800;53.094;8.778;2023-02-01T00:26:00;45.43;;;19.63;;
24677;SDS011;12800;53.094;8.778;2023-02-01T00:28:26;15.17;;;3.67;;
24677;SDS011;12800;53.094;8.778;2023-02-01T00:30:55;13.90;;;3.20;;
24677;SDS011;12800;53.094;8.778;2023-02-01T00:33:25;18.93;;;3.73;;
24677;SDS011;12800;53.094;8.778;2023-02-01T00:35:51;18.43;;;3.97;;
24677;SDS011;12800;53.094;8.778;2023-02-01T00:38:20;16.13;;;3.53;;
24677;SDS011;12800;53.094;8.778;2023-02-01T00:40:46;19.13;;;3.97;;
24677;SDS011;12800;53.094;8.778;2023-02-01T00:43:12;16.90;;;3.87;;
24677;SDS011;12800;53.094;8.778;2023-02-01T00:45:37;26.70;;;4.87;;
24677;SDS011;12800;53.094;8.778;2023-02-01T00:48:03;23.57;;;3.77;;
24677;SDS011;12800;53.094;8.778;2023-02-01T00:50:29;17.73;;;3.63;;
24677;SDS011;12800;53.094;8.778;2023-02-01T00:52:54;21.20;;;3.40;;
24677;SDS011;12800;53.094;8.778;2023-02-01T00:55:20;22.00;;;3.50;;
24677;SDS011;12800;53.094;8.778;2023-02-01T00:57:45;22.60;;;3.87;;
24677;SDS011;12800;53.094;8.778;2023-02-01T01:00:11;18.87;;;3.67;;
24677;SDS011;12800;53.094;8.778;2023-02-01T01:02:37;15.97;;;3.27;;
24677;SDS011;12800;53.094;8.778;2023-02-01T01:05:02;16.20;;;3.23;;
24677;SDS011;12800;53.094;8.778;2023-02-01T01:07:28;17.17;;;3.70;;
24677;SDS011;12800;53.094;8.778;2023-02-01T01:09:54;21.37;;;3.97;;
24677;SDS011;12800;53.094;8.778;2023-02-01T01:12:20;18.93;;;4.20;;
24677;SDS011;12800;53.094;8.778;2023-02-01T01:14:45;13.60;;;3.17;;
24677;SDS011;12800;53.094;8.778;2023-02-01T01:17:11;13.63;;;3.53;;
24677;SDS011;12800;53.094;8.778;2023-02-01T01:19:36;18.23;;;3.53;;
24677;SDS011;12800;53.094;8.778;2023-02-01T01:22:02;18.37;;;3.83;;
24677;SDS011;12800;53.094;8.778;2023-02-01T01:24:28;17.67;;;3.70;;
24677;SDS011;12800;53.094;8.778;2023-02-01T01:26:53;23.53;;;4.53;;
24677;SDS011;12800;53.094;8.778;2023-02-01T01:29:19;19.53;;;3.67;;
24677;SDS011;12800;53.094;8.778;2023-02-01T01:31:44;21.77;;;4.60;;
24677;SDS011;12800;53.094;8.778;2023-02-01T01:34:10;18.23;;;3.70;;
24677;SDS011;12800;53.094;8.778;2023-02-01T01:36:36;17.37;;;3.47;;
24677;SDS011;12800;53.094;8.778;2023-02-01T01:39:01;23.43;;;4.13;;
24677;SDS011;12800;53.094;8.778;2023-02-01T01:41:31;15.73;;;3.83;;
24677;SDS011;12800;53.094;8.778;2023-02-01T01:43:58;19.43;;;3.80;;
24677;SDS011;12800;53.094;8.778;2023-02-01T01:46:30;21.87;;;4.37;;
24677;SDS011;12800;53.094;8.778;2023-02-01T01:49:12;16.60;;;4.43;;
24677;SDS011;12800;53.094;8.778;2023-02-01T01:54:21;13.63;;;3.30;;
24677;SDS011;12800;53.094;8.778;2023-02-01T01:57:04;18.00;;;3.63;;
24677;SDS011;12800;53.094;8.778;2023-02-01T01:59:34;21.90;;;2.77;;
24677;SDS011;12800;53.094;8.778;2023-02-01T02:02:02;14.77;;;3.63;;
24677;SDS011;12800;53.094;8.778;2023-02-01T02:04:27;18.97;;;4.00;;
24677;SDS011;12800;53.094;8.778;2023-02-01T02:07:00;14.50;;;3.53;;
24677;SDS011;12800;53.094;8.778;2023-02-01T02:09:46;16.10;;;3.63;;
24677;SDS011;12800;53.094;8.778;2023-02-01T02:12:12;17.40;;;3.33;;
24677;SDS011;12800;53.094;8.778;2023-02-01T02:14:37;18.60;;;3.17;;
24677;SDS011;12800;53.094;8.778;2023-02-01T02:17:11;17.50;;;2.90;;
24677;SDS011;12800;53.094;8.778;2023-02-01T02:19:55;23.97;;;3.70;;
24677;SDS011;12800;53.094;8.778;2023-02-01T02:34:12;26.80;;;4.30;;
24677;SDS011;12800;53.094;8.778;2023-02-01T02:39:27;17.83;;;3.97;;
24677;SDS011;12800;53.094;8.778;2023-02-01T02:42:27;16.37;;;3.50;;
24677;SDS011;12800;53.094;8.778;2023-02-01T02:53:52;13.87;;;3.30;;
24677;SDS011;12800;53.094;8.778;2023-02-01T02:56:51;18.53;;;3.97;;
24677;SDS011;12800;53.094;8.778;2023-02-01T02:59:37;14.17;;;3.20;;
24677;SDS011;12800;53.094;8.778;2023-02-01T03:02:25;18.63;;;3.23;;
24677;SDS011;12800;53.094;8.778;2023-02-01T03:05:10;17.97;;;3.03;;
24677;SDS011;12800;53.094;8.778;2023-02-01T03:10:49;18.00;;;3.37;;
24677;SDS011;12800;53.094;8.778;2023-02-01T03:15:55;19.33;;;3.40;;
24677;SDS011;12800;53.094;8.778;2023-02-01T03:18:25;14.03;;;3.43;;
24677;SDS011;12800;53.094;8.778;2023-02-01T03:20:55;15.50;;;3.87;;
24677;SDS011;12800;53.094;8.778;2023-02-01T03:23:27;18.77;;;4.17;;
24677;SDS011;12800;53.094;8.778;2023-02-01T03:25:59;18.83;;;3.37;;
24677;SDS011;12800;53.094;8.778;2023-02-01T03:28:26;16.50;;;3.73;;
24677;SDS011;12800;53.094;8.778;2023-02-01T03:30:55;11.13;;;3.57;;
24677;SDS011;12800;53.094;8.778;2023-02-01T03:33:21;18.03;;;3.17;;
24677;SDS011;12800;53.094;8.778;2023-02-01T03:44:15;13.60;;;2.47;;
24677;SDS011;12800;53.094;8.778;2023-02-01T03:46:47;13.27;;;2.80;;
24677;SDS011;12800;53.094;8.778;2023-02-01T03:49:27;12.33;;;3.67;;
24677;SDS011;12800;53.094;8.778;2023-02-01T03:51:58;11.60;;;2.60;;
24677;SDS011;12800;53.094;8.778;2023-02-01T03:54:24;11.70;;;2.70;;
24677;SDS011;12800;53.094;8.778;2023-02-01T03:56:52;10.17;;;2.47;;
24677;SDS011;12800;53.094;8.778;2023-02-01T03:59:21;11.83;;;2.37;;
24677;SDS011;12800;53.094;8.778;2023-02-01T04:01:47;12.70;;;2.50;;
24677;SDS011;12800;53.094;8.778;2023-02-01T04:04:12;11.33;;;2.80;;
24677;SDS011;12800;53.094;8.778;2023-02-01T04:06:45;10.97;;;2.70;;
24677;SDS011;12800;53.094;8.778;2023-02-01T04:09:11;15.47;;;2.70;;
24677;SDS011;12800;53.094;8.778;2023-02-01T04:11:37;8.03;;;2.20;;
24677;SDS011;12800;53.094;8.778;2023-02-01T04:14:02;10.80;;;2.13;;
24677;SDS011;12800;53.094;8.778;2023-02-01T04:16:29;7.87;;;2.17;;
24677;SDS011;12800;53.094;8.778;2023-02-01T04:18:56;8.77;;;2.80;;
24677;SDS011;12800;53.094;8.778;2023-02-01T04:21:22;13.27;;;2.27;;
24677;SDS011;12800;53.094;8.778;2023-02-01T04:23:48;10.90;;;2.33;;
24677;SDS011;12800;53.094;8.778;2023-02-01T04:26:13;10.27;;;2.23;;
24677;SDS011;12800;53.094;8.778;2023-02-01T04:28:41;12.27;;;3.03;;
24677;SDS011;12800;53.094;8.778;2023-02-01T04:31:07;14.60;;;4.03;;
24677;SDS011;12800;53.094;8.778;2023-02-01T04:33:33;13.53;;;3.00;;
24677;SDS011;12800;53.094;8.778;2023-02-01T04:35:58;16.30;;;3.43;;
24677;SDS011;12800;53.094;8.778;2023-02-01T04:38:24;13.13;;;2.70;;
24677;SDS011;12800;53.094;8.778;2023-02-01T04:40:50;9.77;;;2.53;;
24677;SDS011;12800;53.094;8.778;2023-02-01T04:43:16;15.47;;;3.10;;
24677;SDS011;12800;53.094;8.778;2023-02-01T04:45:46;13.47;;;2.87;;
24677;SDS011;12800;53.094;8.778;2023-02-01T04:48:13;11.73;;;3.00;;
24677;SDS011;12800;53.094;8.778;2023-02-01T04:50:39;12.70;;;3.57;;
24677;SDS011;12800;53.094;8.778;2023-02-01T04:53:05;18.13;;;3.30;;
24677;SDS011;12800;53.094;8.778;2023-02-01T04:55:30;15.03;;;4.50;;
24677;SDS011;12800;53.094;8.778;2023-02-01T04:57:56;16.00;;;4.00;;
24677;SDS011;12800;53.094;8.778;2023-02-01T05:00:21;14.13;;;2.33;;
24677;SDS011;12800;53.094;8.778;2023-02-01T05:02:47;14.33;;;3.13;;
24677;SDS011;12800;53.094;8.778;2023-02-01T05:05:13;17.10;;;3.03;;
24677;SDS011;12800;53.094;8.778;2023-02-01T05:07:38;16.40;;;3.27;;
24677;SDS011;12800;53.094;8.778;2023-02-01T05:10:04;17.67;;;3.93;;
24677;SDS011;12800;53.094;8.778;2023-02-01T05:12:30;14.13;;;2.63;;
24677;SDS011;12800;53.094;8.778;2023-02-01T05:15:14;20.30;;;3.80;;
24677;SDS011;12800;53.094;8.778;2023-02-01T05:17:40;12.30;;;3.07;;
24677;SDS011;12800;53.094;8.778;2023-02-01T05:20:06;13.03;;;3.30;;
24677;SDS011;12800;53.094;8.778;2023-02-01T05:22:32;13.37;;;2.80;;
24677;SDS011;12800;53.094;8.778;2023-02-01T05:24:58;16.47;;;3.20;;
24677;SDS011;12800;53.094;8.778;2023-02-01T05:27:24;16.73;;;3.27;;
24677;SDS011;12800;53.094;8.778;2023-02-01T05:29:49;10.03;;;2.40;;
24677;SDS011;12800;53.094;8.778;2023-02-01T05:32:15;10.83;;;2.70;;
24677;SDS011;12800;53.094;8.778;2023-02-01T05:34:40;11.53;;;2.60;;
24677;SDS011;12800;53.094;8.778;2023-02-01T05:37:06;12.93;;;2.47;;
24677;SDS011;12800;53.094;8.778;2023-02-01T05:39:32;11.80;;;2.40;;
24677;SDS011;12800;53.094;8.778;2023-02-01T05:41:57;11.60;;;2.30;;
24677;SDS011;12800;53.094;8.778;2023-02-01T05:44:23;10.67;;;2.93;;
24677;SDS011;12800;53.094;8.778;2023-02-01T05:46:48;11.43;;;2.50;;
24677;SDS011;12800;53.094;8.778;2023-02-01T05:49:14;13.23;;;2.77;;
24677;SDS011;12800;53.094;8.778;2023-02-01T05:51:39;11.13;;;2.70;;
24677;SDS011;12800;53.094;8.778;2023-02-01T05:54:05;15.97;;;3.63;;
24677;SDS011;12800;53.094;8.778;2023-02-01T05:56:31;9.50;;;2.33;;
24677;SDS011;12800;53.094;8.778;2023-02-01T05:58:56;12.40;;;2.87;;
24677;SDS011;12800;53.094;8.778;2023-02-01T06:01:22;12.47;;;2.67;;
24677;SDS011;12800;53.094;8.778;2023-02-01T06:03:47;13.27;;;3.20;;
24677;SDS011;12800;53.094;8.778;2023-02-01T06:06:13;14.17;;;3.80;;
24677;SDS011;12800;53.094;8.778;2023-02-01T06:08:39;11.40;;;2.77;;
24677;SDS011;12800;53.094;8.778;2023-02-01T06:11:07;9.17;;;2.37;;
24677;SDS011;12800;53.094;8.778;2023-02-01T06:13:32;10.57;;;2.23;;
24677;SDS011;12800;53.094;8.778;2023-02-01T06:15:58;9.20;;;2.40;;
24677;SDS011;12800;53.094;8.778;2023-02-01T06:18:24;12.70;;;2.40;;
24677;SDS011;12800;53.094;8.778;2023-02-01T06:20:54;14.20;;;3.07;;
24677;SDS011;12800;53.094;8.778;2023-02-01T06:23:20;13.47;;;2.40;;
24677;SDS011;12800;53.094;8.778;2023-02-01T06:25:48;10.90;;;2.93;;
24677;SDS011;12800;53.094;8.778;2023-02-01T06:28:15;10.90;;;1.93;;
24677;SDS011;12800;53.094;8.778;2023-02-01T06:30:40;13.13;;;2.93;;
24677;SDS011;12800;53.094;8.778;2023-02-01T06:33:10;9.63;;;2.00;;
24677;SDS011;12800;53.094;8.778;2023-02-01T06:35:39;13.93;;;2.30;;
24677;SDS011;12800;53.094;8.778;2023-02-01T06:38:07;11.20;;;2.50;;
24677;SDS011;12800;53.094;8.778;2023-02-01T06:40:33;12.73;;;2.73;;
24677;SDS011;12800;53.094;8.778;2023-02-01T06:42:58;12.87;;;2.63;;
24677;SDS011;12800;53.094;8.778;2023-02-01T06:45:24;8.23;;;2.33;;
24677;SDS011;12800;53.094;8.778;2023-02-01T06:47:49;13.80;;;3.10;;
24677;SDS011;12800;53.094;8.778;2023-02-01T06:50:15;19.77;;;3.00;;
24677;SDS011;12800;53.094;8.778;2023-02-01T06:52:41;13.97;;;3.23;;
24677;SDS011;12800;53.094;8.778;2023-02-01T06:55:07;11.30;;;2.60;;
24677;SDS011;12800;53.094;8.778;2023-02-01T06:57:33;15.90;;;2.10;;
24677;SDS011;12800;53.094;8.778;2023-02-01T07:00:00;16.83;;;2.67;;
24677;SDS011;12800;53.094;8.778;2023-02-01T07:02:28;14.60;;;2.80;;
24677;SDS011;12800;53.094;8.778;2023-02-01T07:04:53;11.97;;;2.33;;
24677;SDS011;12800;53.094;8.778;2023-02-01T07:07:19;9.27;;;1.97;;
24677;SDS011;12800;53.094;8.778;2023-02-01T07:09:47;5.27;;;1.83;;
24677;SDS011;12800;53.094;8.778;2023-02-01T07:12:13;11.33;;;1.83;;
24677;SDS011;12800;53.094;8.778;2023-02-01T07:14:39;8.03;;;1.73;;
24677;SDS011;12800;53.094;8.778;2023-02-01T07:17:05;5.10;;;2.17;;
24677;SDS011;12800;53.094;8.778;2023-02-01T07:19:30;11.53;;;2.57;;
24677;SDS011;12800;53.094;8.778;2023-02-01T07:21:56;12.27;;;2.80;;
24677;SDS011;12800;53.094;8.778;2023-02-01T07:24:21;11.23;;;2.63;;
24677;SDS011;12800;53.094;8.778;2023-02-01T07:26:47;8.37;;;2.40;;
24677;SDS011;12800;53.094;8.778;2023-02-01T07:29:13;17.97;;;2.70;;
24677;SDS011;12800;53.094;8.778;2023-02-01T07:31:39;12.73;;;2.97;;
24677;SDS011;12800;53.094;8.778;2023-02-01T07:34:05;10.30;;;2.47;;
24677;SDS011;12800;53.094;8.778;2023-02-01T07:36:30;20.80;;;3.20;;
24677;SDS011;12800;53.094;8.778;2023-02-01T07:38:57;14.50;;;3.23;;
24677;SDS011;12800;53.094;8.778;2023-02-01T07:41:22;15.03;;;2.90;;
24677;SDS011;12800;53.094;8.778;2023-02-01T07:43:48;13.17;;;2.90;;
24677;SDS011;12800;53.094;8.778;2023-02-01T07:46:17;16.03;;;3.07;;
24677;SDS011;12800;53.094;8.778;2023-02-01T07:48:42;8.30;;;2.33;;
24677;SDS011;12800;53.094;8.778;2023-02-01T07:51:09;17.70;;;3.20;;
24677;SDS011;12800;53.094;8.778;2023-02-01T07:53:37;11.80;;;2.43;;
24677;SDS011;12800;53.094;8.778;2023-02-01T07:56:03;15.47;;;3.33;;
24677;SDS011;12800;53.094;8.778;2023-02-01T07:58:35;19.23;;;3.57;;
24677;SDS011;12800;53.094;8.778;2023-02-01T08:01:00;17.60;;;3.10;;
24677;SDS011;12800;53.094;8.778;2023-02-01T08:03:44;16.00;;;3.33;;
24677;SDS011;12800;53.094;8.778;2023-02-01T08:06:11;20.33;;;3.83;;
24677;SDS011;12800;53.094;8.778;2023-02-01T08:08:37;14.57;;;2.10;;
24677;SDS011;12800;53.094;8.778;2023-02-01T08:11:03;14.23;;;2.70;;
24677;SDS011;12800;53.094;8.778;2023-02-01T08:13:30;15.33;;;3.87;;
24677;SDS011;12800;53.094;8.778;2023-02-01T08:16:01;13.90;;;3.00;;
24677;SDS011;12800;53.094;8.778;2023-02-01T08:18:29;15.33;;;4.20;;
24677;SDS011;12800;53.094;8.778;2023-02-01T08:20:55;9.77;;;2.50;;
24677;SDS011;12800;53.094;8.778;2023-02-01T08:23:22;9.10;;;2.40;;
24677;SDS011;12800;53.094;8.778;2023-02-01T08:25:48;10.47;;;3.00;;
24677;SDS011;12800;53.094;8.778;2023-02-01T08:28:14;15.97;;;2.37;;
24677;SDS011;12800;53.094;8.778;2023-02-01T08:30:39;18.57;;;3.33;;
24677;SDS011;12800;53.094;8.778;2023-02-01T08:33:07;12.70;;;3.07;;
24677;SDS011;12800;53.094;8.778;2023-02-01T08:35:36;20.33;;;3.83;;
24677;SDS011;12800;53.094;8.778;2023-02-01T08:38:03;25.67;;;11.83;;
24677;SDS011;12800;53.094;8.778;2023-02-01T08:40:29;14.97;;;2.43;;
24677;SDS011;12800;53.094;8.778;2023-02-01T08:42:56;15.10;;;3.60;;
24677;SDS011;12800;53.094;8.778;2023-02-01T08:45:23;10.10;;;2.07;;
24677;SDS011;12800;53.094;8.778;2023-02-01T08:47:50;15.43;;;3.33;;
24677;SDS011;12800;53.094;8.778;2023-02-01T08:50:17;15.90;;;2.70;;
24677;SDS011;12800;53.094;8.778;2023-02-01T08:52:43;10.93;;;2.47;;
24677;SDS011;12800;53.094;8.778;2023-02-01T08:55:09;15.87;;;3.23;;
24677;SDS011;12800;53.094;8.778;2023-02-01T08:57:35;22.93;;;2.87;;
24677;SDS011;12800;53.094;8.778;2023-02-01T09:00:01;14.87;;;3.67;;
24677;SDS011;12800;53.094;8.778;2023-02-01T09:02:28;17.93;;;2.80;;
24677;SDS011;12800;53.094;8.778;2023-02-01T09:04:55;14.73;;;4.10;;
24677;SDS011;12800;53.094;8.778;2023-02-01T09:07:21;15.13;;;5.77;;
24677;SDS011;12800;53.094;8.778;2023-02-01T09:09:46;22.07;;;4.63;;
24677;SDS011;12800;53.094;8.778;2023-02-01T09:12:12;16.03;;;3.80;;
24677;SDS011;12800;53.094;8.778;2023-02-01T09:14:38;14.03;;;3.37;;
24677;SDS011;12800;53.094;8.778;2023-02-01T09:17:03;15.00;;;3.47;;
24677;SDS011;12800;53.094;8.778;2023-02-01T09:19:30;17.60;;;3.97;;
24677;SDS011;12800;53.094;8.778;2023-02-01T09:21:56;18.93;;;3.30;;
24677;SDS011;12800;53.094;8.778;2023-02-01T09:24:22;21.40;;;5.50;;
24677;SDS011;12800;53.094;8.778;2023-02-01T09:26:48;15.20;;;4.30;;
24677;SDS011;12800;53.094;8.778;2023-02-01T09:29:14;14.10;;;2.83;;
24677;SDS011;12800;53.094;8.778;2023-02-01T09:31:40;17.00;;;3.60;;
24677;SDS011;12800;53.094;8.778;2023-02-01T09:34:06;13.03;;;2.70;;
24677;SDS011;12800;53.094;8.778;2023-02-01T09:36:32;13.57;;;2.87;;
24677;SDS011;12800;53.094;8.778;2023-02-01T09:38:59;12.97;;;2.47;;
24677;SDS011;12800;53.094;8.778;2023-02-01T09:44:32;12.67;;;3.63;;
24677;SDS011;12800;53.094;8.778;2023-02-01T09:47:00;18.03;;;3.50;;
24677;SDS011;12800;53.094;8.778;2023-02-01T09:49:30;11.73;;;2.60;;
24677;SDS011;12800;53.094;8.778;2023-02-01T09:51:59;14.37;;;3.80;;
24677;SDS011;12800;53.094;8.778;2023-02-01T09:54:29;16.03;;;3.10;;
24677;SDS011;12800;53.094;8.778;2023-02-01T09:59:45;19.20;;;3.70;;
24677;SDS011;12800;53.094;8.778;2023-02-01T10:02:18;16.03;;;3.37;;
24677;SDS011;12800;53.094;8.778;2023-02-01T10:04:46;15.60;;;3.20;;
24677;SDS011;12800;53.094;8.778;2023-02-01T10:09:56;11.73;;;2.63;;
24677;SDS011;12800;53.094;8.778;2023-02-01T10:26:35;20.97;;;4.10;;
24677;SDS011;12800;53.094;8.778;2023-02-01T10:29:15;10.80;;;2.33;;
24677;SDS011;12800;53.094;8.778;2023-02-01T10:31:43;14.77;;;2.97;;
24677;SDS011;12800;53.094;8.778;2023-02-01T10:34:18;10.77;;;2.27;;
24677;SDS011;12800;53.094;8.778;2023-02-01T10:39:21;20.67;;;6.60;;
24677;SDS011;12800;53.094;8.778;2023-02-01T10:41:48;13.03;;;2.90;;
24677;SDS011;12800;53.094;8.778;2023-02-01T10:44:15;12.67;;;2.17;;
24677;SDS011;12800;53.094;8.778;2023-02-01T10:46:51;7.97;;;2.70;;
24677;SDS011;12800;53.094;8.778;2023-02-01T10:49:24;19.27;;;3.10;;
24677;SDS011;12800;53.094;8.778;2023-02-01T10:51:58;16.03;;;2.53;;
24677;SDS011;12800;53.094;8.778;2023-02-01T10:54:32;15.00;;;3.73;;
24677;SDS011;12800;53.094;8.778;2023-02-01T10:56:59;9.17;;;2.77;;
24677;SDS011;12800;53.094;8.778;2023-02-01T10:59:25;12.10;;;2.53;;
24677;SDS011;12800;53.094;8.778;2023-02-01T11:02:00;15.63;;;3.77;;
24677;SDS011;12800;53.094;8.778;2023-02-01T11:04:32;10.20;;;3.03;;
24677;SDS011;12800;53.094;8.778;2023-02-01T11:09:41;12.03;;;2.40;;
24677;SDS011;12800;53.094;8.778;2023-02-01T11:12:21;11.20;;;1.70;;
24677;SDS011;12800;53.094;8.778;2023-02-01T11:15:18;12.00;;;2.57;;
24677;SDS011;12800;53.094;8.778;2023-02-01T11:17:50;7.07;;;1.80;;
24677;SDS011;12800;53.094;8.778;2023-02-01T11:20:21;5.50;;;1.77;;
24677;SDS011;12800;53.094;8.778;2023-02-01T11:22:58;6.37;;;2.37;;
24677;SDS011;12800;53.094;8.778;2023-02-01T11:25:24;9.63;;;2.53;;
24677;SDS011;12800;53.094;8.778;2023-02-01T11:27:51;16.17;;;4.80;;
24677;SDS011;12800;53.094;8.778;2023-02-01T11:30:22;16.23;;;3.10;;
24677;SDS011;12800;53.094;8.778;2023-02-01T11:33:01;16.43;;;4.13;;
24677;SDS011;12800;53.094;8.778;2023-02-01T11:35:30;11.97;;;2.07;;
24677;SDS011;12800;53.094;8.778;2023-02-01T11:37:59;12.27;;;2.53;;
24677;SDS011;12800;53.094;8.778;2023-02-01T11:40:29;10.43;;;1.83;;
24677;SDS011;12800;53.094;8.778;2023-02-01T11:43:01;7.10;;;1.67;;
24677;SDS011;12800;53.094;8.778;2023-02-01T11:45:53;7.93;;;1.53;;
24677;SDS011;12800;53.094;8.778;2023-02-01T11:48:28;5.93;;;1.87;;
24677;SDS011;12800;53.094;8.778;2023-02-01T11:56:28;4.67;;;1.33;;
24677;SDS011;12800;53.094;8.778;2023-02-01T12:02:02;5.87;;;1.60;;
24677;SDS011;12800;53.094;8.778;2023-02-01T12:16:02;4.83;;;1.40;;
24677;SDS011;12800;53.094;8.778;2023-02-01T12:18:56;8.17;;;1.67;;
24677;SDS011;12800;53.094;8.778;2023-02-01T12:32:25;1.07;;;0.40;;
24677;SDS011;12800;53.094;8.778;2023-02-01T12:43:01;0.80;;;0.37;;
24677;SDS011;12800;53.094;8.778;2023-02-01T12:45:34;1.17;;;0.50;;
24677;SDS011;12800;53.094;8.778;2023-02-01T12:51:06;0.57;;;0.33;;
24677;SDS011;12800;53.094;8.778;2023-02-01T12:56:43;0.50;;;0.20;;
24677;SDS011;12800;53.094;8.778;2023-02-01T12:59:29;0.80;;;0.30;;
24677;SDS011;12800;53.094;8.778;2023-02-01T13:05:04;0.50;;;0.20;;
24677;SDS011;12800;53.094;8.778;2023-02-01T13:07:41;0.97;;;0.40;;
24677;SDS011;12800;53.094;8.778;2023-02-01T13:10:34;1.23;;;0.30;;
24677;SDS011;12800;53.094;8.778;2023-02-01T13:15:41;1.40;;;0.30;;
24677;SDS011;12800;53.094;8.778;2023-02-01T13:18:31;1.43;;;0.50;;
24677;SDS011;12800;53.094;8.778;2023-02-01T13:21:03;0.53;;;0.23;;
24677;SDS011;12800;53.094;8.778;2023-02-01T13:23:36;0.80;;;0.50;;
24677;SDS011;12800;53.094;8.778;2023-02-01T13:26:03;2.83;;;0.40;;
24677;SDS011;12800;53.094;8.778;2023-02-01T13:42:13;5.47;;;1.00;;
24677;SDS011;12800;53.094;8.778;2023-02-01T13:45:02;5.13;;;1.23;;
24677;SDS011;12800;53.094;8.778;2023-02-01T13:47:49;5.83;;;1.03;;
24677;SDS011;12800;53.094;8.778;2023-02-01T13:50:26;7.47;;;1.27;;
24677;SDS011;12800;53.094;8.778;2023-02-01T13:55:55;7.23;;;1.20;;
24677;SDS011;12800;53.094;8.778;2023-02-01T13:58:21;2.60;;;1.07;;
24677;SDS011;12800;53.094;8.778;2023-02-01T14:00:48;7.53;;;1.27;;
24677;SDS011;12800;53.094;8.778;2023-02-01T14:03:42;8.03;;;1.43;;
24677;SDS011;12800;53.094;8.778;2023-02-01T14:11:55;10.80;;;1.30;;
24677;SDS011;12800;53.094;8.778;2023-02-01T14:21:59;3.80;;;1.27;;
24677;SDS011;12800;53.094;8.778;2023-02-01T14:24:49;4.73;;;0.93;;
24677;SDS011;12800;53.094;8.778;2023-02-01T14:27:20;7.27;;;1.47;;
24677;SDS011;12800;53.094;8.778;2023-02-01T14:29:51;10.73;;;1.63;;
24677;SDS011;12800;53.094;8.778;2023-02-01T14:32:33;8.07;;;1.60;;
24677;SDS011;12800;53.094;8.778;2023-02-01T14:35:05;6.77;;;1.37;;
24677;SDS011;12800;53.094;8.778;2023-02-01T14:37:34;7.93;;;1.40;;
24677;SDS011;12800;53.094;8.778;2023-02-01T14:42:44;8.97;;;1.90;;
24677;SDS011;12800;53.094;8.778;2023-02-01T15:00:52;17.97;;;2.60;;
24677;SDS011;12800;53.094;8.778;2023-02-01T15:05:55;14.17;;;2.70;;
24677;SDS011;12800;53.094;8.778;2023-02-01T15:08:30;9.53;;;2.70;;
24677;SDS011;12800;53.094;8.778;2023-02-01T15:10:59;19.73;;;2.97;;
24677;SDS011;12800;53.094;8.778;2023-02-01T15:13:28;17.40;;;4.33;;
24677;SDS011;12800;53.094;8.778;2023-02-01T15:18:35;20.13;;;3.47;;
24677;SDS011;12800;53.094;8.778;2023-02-01T15:21:01;18.40;;;3.20;;
24677;SDS011;12800;53.094;8.778;2023-02-01T15:23:28;14.63;;;3.20;;
24677;SDS011;12800;53.094;8.778;2023-02-01T15:25:54;15.47;;;3.30;;
24677;SDS011;12800;53.094;8.778;2023-02-01T15:28:20;16.00;;;2.83;;
24677;SDS011;12800;53.094;8.778;2023-02-01T15:31:00;11.97;;;2.87;;
24677;SDS011;12800;53.094;8.778;2023-02-01T15:33:29;17.70;;;4.30;;
24677;SDS011;12800;53.094;8.778;2023-02-01T15:36:17;43.10;;;19.83;;
24677;SDS011;12800;53.094;8.778;2023-02-01T15:38:43;16.00;;;2.80;;
24677;SDS011;12800;53.094;8.778;2023-02-01T15:41:16;22.17;;;3.10;;
24677;SDS011;12800;53.094;8.778;2023-02-01T15:47:04;16.63;;;3.67;;
24677;SDS011;12800;53.094;8.778;2023-02-01T15:49:21;18.30;;;3.67;;
24677;SDS011;12800;53.094;8.778;2023-02-01T15:51:58;15.43;;;4.37;;
24677;SDS011;12800;53.094;8.778;2023-02-01T15:54:41;17.57;;;2.73;;
24677;SDS011;12800;53.094;8.778;2023-02-01T15:57:11;17.67;;;2.90;;
24677;SDS011;12800;53.094;8.778;2023-02-01T15:59:43;16.43;;;3.20;;
24677;SDS011;12800;53.094;8.778;2023-02-01T16:04:54;15.57;;;3.13;;
24677;SDS011;12800;53.094;8.778;2023-02-01T16:07:25;11.13;;;2.37;;
24677;SDS011;12800;53.094;8.778;2023-02-01T16:09:54;9.17;;;1.80;;
24677;SDS011;12800;53.094;8.778;2023-02-01T16:15:10;8.83;;;1.37;;
24677;SDS011;12800;53.094;8.778;2023-02-01T16:17:36;5.60;;;1.60;;
24677;SDS011;12800;53.094;8.778;2023-02-01T16:20:02;6.43;;;1.23;;
24677;SDS011;12800;53.094;8.778;2023-02-01T16:22:28;5.33;;;1.23;;
24677;SDS011;12800;53.094;8.778;2023-02-01T16:24:54;4.90;;;1.20;;
24677;SDS011;12800;53.094;8.778;2023-02-01T16:27:19;6.63;;;1.00;;
24677;SDS011;12800;53.094;8.778;2023-02-01T16:29:47;6.87;;;1.40;;
24677;SDS011;12800;53.094;8.778;2023-02-01T16:32:18;6.23;;;1.53;;
24677;SDS011;12800;53.094;8.778;2023-02-01T16:34:46;5.27;;;1.20;;
24677;SDS011;12800;53.094;8.778;2023-02-01T16:37:13;5.93;;;1.20;;
24677;SDS011;12800;53.094;8.778;2023-02-01T16:39:43;6.40;;;1.33;;
24677;SDS011;12800;53.094;8.778;2023-02-01T16:42:10;5.83;;;1.17;;
24677;SDS011;12800;53.094;8.778;2023-02-01T16:44:37;4.17;;;1.00;;
24677;SDS011;12800;53.094;8.778;2023-02-01T16:47:03;5.67;;;1.13;;
24677;SDS011;12800;53.094;8.778;2023-02-01T16:49:40;2.67;;;0.80;;
24677;SDS011;12800;53.094;8.778;2023-02-01T16:52:08;5.50;;;1.17;;
24677;SDS011;12800;53.094;8.778;2023-02-01T16:54:48;11.13;;;1.73;;
24677;SDS011;12800;53.094;8.778;2023-02-01T16:57:15;10.27;;;1.57;;
24677;SDS011;12800;53.094;8.778;2023-02-01T16:59:42;10.47;;;2.50;;
24677;SDS011;12800;53.094;8.778;2023-02-01T17:02:15;8.60;;;2.40;;
24677;SDS011;12800;53.094;8.778;2023-02-01T17:04:43;9.13;;;2.07;;
24677;SDS011;12800;53.094;8.778;2023-02-01T17:07:11;10.73;;;1.93;;
24677;SDS011;12800;53.094;8.778;2023-02-01T17:09:39;10.30;;;2.30;;
24677;SDS011;12800;53.094;8.778;2023-02-01T17:12:05;9.93;;;1.90;;
24677;SDS011;12800;53.094;8.778;2023-02-01T17:14:32;18.10;;;4.17;;
24677;SDS011;12800;53.094;8.778;2023-02-01T17:17:01;7.70;;;2.97;;
24677;SDS011;12800;53.094;8.778;2023-02-01T17:19:27;14.93;;;2.50;;
24677;SDS011;12800;53.094;8.778;2023-02-01T17:21:53;13.07;;;2.90;;
24677;SDS011;12800;53.094;8.778;2023-02-01T17:24:24;10.37;;;2.67;;
24677;SDS011;12800;53.094;8.778;2023-02-01T17:26:51;11.33;;;3.37;;
24677;SDS011;12800;53.094;8.778;2023-02-01T17:29:17;8.53;;;1.97;;
24677;SDS011;12800;53.094;8.778;2023-02-01T17:31:43;9.67;;;2.63;;
24677;SDS011;12800;53.094;8.778;2023-02-01T17:34:11;11.73;;;2.77;;
24677;SDS011;12800;53.094;8.778;2023-02-01T17:36:39;15.83;;;2.83;;
24677;SDS011;12800;53.094;8.778;2023-02-01T17:39:06;13.57;;;2.53;;
24677;SDS011;12800;53.094;8.778;2023-02-01T17:41:32;11.13;;;2.90;;
24677;SDS011;12800;53.094;8.778;2023-02-01T17:43:58;14.73;;;3.63;;
24677;SDS011;12800;53.094;8.778;2023-02-01T17:46:23;16.00;;;3.93;;
24677;SDS011;12800;53.094;8.778;2023-02-01T17:48:52;13.97;;;3.57;;
24677;SDS011;12800;53.094;8.778;2023-02-01T17:51:20;19.33;;;2.57;;
24677;SDS011;12800;53.094;8.778;2023-02-01T17:53:47;15.67;;;3.00;;